sensor_id;sensor_type;location;lat;lon;timestamp;temperature;humidity
1129;DHT22;553;51.038;7.216;2023-03-02T00:02:10;2.30;87.70
1129;DHT22;553;51.038;7.216;2023-03-02T00:04:53;2.20;87.90
1129;DHT22;553;51.038;7.216;2023-03-02T00:07:25;2.20;88.20
1129;DHT22;553;51.038;7.216;2023-03-02T00:09:53;2.10;88.20
1129;DHT22;553;51.038;7.216;2023-03-02T00:12:20;2.00;88.60
1129;DHT22;553;51.038;7.216;2023-03-02T00:14:47;1.90;88.70
1129;DHT22;553;51.038;7.216;2023-03-02T00:17:14;1.90;88.90
1129;DHT22;553;51.038;7.216;2023-03-02T00:19:40;1.90;89.00
1129;DHT22;553;51.038;7.216;2023-03-02T00:22:07;1.90;88.90
1129;DHT22;553;51.038;7.216;2023-03-02T00:24:36;2.00;88.90
1129;DHT22;553;51.038;7.216;2023-03-02T00:27:03;2.00;88.70
1129;DHT22;553;51.038;7.216;2023-03-02T00:29:29;2.00;88.30
1129;DHT22;553;51.038;7.216;2023-03-02T00:31:56;2.10;88.00
1129;DHT22;553;51.038;7.216;2023-03-02T00:34:23;2.10;87.50
1129;DHT22;553;51.038;7.216;2023-03-02T00:36:50;2.10;87.30
1129;DHT22;553;51.038;7.216;2023-03-02T00:39:16;2.10;87.20
1129;DHT22;553;51.038;7.216;2023-03-02T00:41:46;2.10;87.00
1129;DHT22;553;51.038;7.216;2023-03-02T00:44:12;2.20;87.00
1129;DHT22;553;51.038;7.216;2023-03-02T00:46:43;2.10;87.20
1129;DHT22;553;51.038;7.216;2023-03-02T00:49:11;2.10;87.30
1129;DHT22;553;51.038;7.216;2023-03-02T00:51:38;2.00;87.50
1129;DHT22;553;51.038;7.216;2023-03-02T00:54:05;2.00;88.20
1129;DHT22;553;51.038;7.216;2023-03-02T00:56:32;1.90;88.70
1129;DHT22;553;51.038;7.216;2023-03-02T00:59:04;1.70;89.40
1129;DHT22;553;51.038;7.216;2023-03-02T01:01:32;1.60;89.90
1129;DHT22;553;51.038;7.216;2023-03-02T01:03:59;1.50;90.30
1129;DHT22;553;51.038;7.216;2023-03-02T01:06:25;1.50;90.40
1129;DHT22;553;51.038;7.216;2023-03-02T01:08:52;1.50;90.50
1129;DHT22;553;51.038;7.216;2023-03-02T01:11:20;1.50;90.50
1129;DHT22;553;51.038;7.216;2023-03-02T01:13:48;1.50;90.50
1129;DHT22;553;51.038;7.216;2023-03-02T01:16:16;1.50;90.50
1129;DHT22;553;51.038;7.216;2023-03-02T01:18:42;1.50;90.30
1129;DHT22;553;51.038;7.216;2023-03-02T01:21:14;1.60;89.80
1129;DHT22;553;51.038;7.216;2023-03-02T01:23:41;1.70;88.70
1129;DHT22;553;51.038;7.216;2023-03-02T01:26:08;1.90;87.90
1129;DHT22;553;51.038;7.216;2023-03-02T01:28:35;1.90;87.40
1129;DHT22;553;51.038;7.216;2023-03-02T01:31:02;1.90;87.00
1129;DHT22;553;51.038;7.216;2023-03-02T01:33:30;1.90;86.70
1129;DHT22;553;51.038;7.216;2023-03-02T01:35:57;1.90;86.10
1129;DHT22;553;51.038;7.216;2023-03-02T01:38:24;2.00;85.90
1129;DHT22;553;51.038;7.216;2023-03-02T01:40:51;2.00;85.60
1129;DHT22;553;51.038;7.216;2023-03-02T01:43:18;2.00;85.70
1129;DHT22;553;51.038;7.216;2023-03-02T01:48:27;2.00;85.80
1129;DHT22;553;51.038;7.216;2023-03-02T01:50:55;2.00;86.00
1129;DHT22;553;51.038;7.216;2023-03-02T01:53:25;2.00;86.20
1129;DHT22;553;51.038;7.216;2023-03-02T01:55:54;1.90;86.10
1129;DHT22;553;51.038;7.216;2023-03-02T01:58:21;1.90;86.10
1129;DHT22;553;51.038;7.216;2023-03-02T02:00:48;2.00;85.80
1129;DHT22;553;51.038;7.216;2023-03-02T02:03:25;2.00;85.50
1129;DHT22;553;51.038;7.216;2023-03-02T02:06:02;2.10;85.20
1129;DHT22;553;51.038;7.216;2023-03-02T02:08:31;2.10;85.40
1129;DHT22;553;51.038;7.216;2023-03-02T02:10:59;2.10;85.40
1129;DHT22;553;51.038;7.216;2023-03-02T02:13:26;2.10;84.90
1129;DHT22;553;51.038;7.216;2023-03-02T02:15:53;2.10;85.00
1129;DHT22;553;51.038;7.216;2023-03-02T02:18:20;2.10;85.10
1129;DHT22;553;51.038;7.216;2023-03-02T02:20:48;2.20;84.80
1129;DHT22;553;51.038;7.216;2023-03-02T02:23:32;2.10;84.30
1129;DHT22;553;51.038;7.216;2023-03-02T02:26:11;2.10;84.30
1129;DHT22;553;51.038;7.216;2023-03-02T02:28:54;2.10;84.30
1129;DHT22;553;51.038;7.216;2023-03-02T02:31:34;2.10;84.30
1129;DHT22;553;51.038;7.216;2023-03-02T02:34:17;2.10;84.20
1129;DHT22;553;51.038;7.216;2023-03-02T02:36:53;2.10;84.00
1129;DHT22;553;51.038;7.216;2023-03-02T02:39:28;2.10;84.00
1129;DHT22;553;51.038;7.216;2023-03-02T02:42:03;2.10;84.00
1129;DHT22;553;51.038;7.216;2023-03-02T02:44:30;2.20;84.00
1129;DHT22;553;51.038;7.216;2023-03-02T02:46:58;2.10;84.00
1129;DHT22;553;51.038;7.216;2023-03-02T02:49:34;2.10;84.30
1129;DHT22;553;51.038;7.216;2023-03-02T02:52:03;2.10;84.10
1129;DHT22;553;51.038;7.216;2023-03-02T02:54:32;2.00;84.20
1129;DHT22;553;51.038;7.216;2023-03-02T02:57:01;2.10;84.20
1129;DHT22;553;51.038;7.216;2023-03-02T02:59:38;2.00;84.70
1129;DHT22;553;51.038;7.216;2023-03-02T03:02:18;2.10;84.60
1129;DHT22;553;51.038;7.216;2023-03-02T03:04:46;2.10;84.80
1129;DHT22;553;51.038;7.216;2023-03-02T03:07:22;2.10;85.20
1129;DHT22;553;51.038;7.216;2023-03-02T03:09:56;2.10;84.60
1129;DHT22;553;51.038;7.216;2023-03-02T03:12:25;2.10;84.70
1129;DHT22;553;51.038;7.216;2023-03-02T03:14:54;2.00;85.40
1129;DHT22;553;51.038;7.216;2023-03-02T03:17:21;2.00;85.40
1129;DHT22;553;51.038;7.216;2023-03-02T03:19:56;2.00;85.70
1129;DHT22;553;51.038;7.216;2023-03-02T03:22:35;1.90;85.60
1129;DHT22;553;51.038;7.216;2023-03-02T03:25:04;1.90;84.90
1129;DHT22;553;51.038;7.216;2023-03-02T03:27:31;2.00;84.90
1129;DHT22;553;51.038;7.216;2023-03-02T03:30:00;1.90;84.70
1129;DHT22;553;51.038;7.216;2023-03-02T03:32:29;2.00;85.40
1129;DHT22;553;51.038;7.216;2023-03-02T03:34:59;1.90;86.30
1129;DHT22;553;51.038;7.216;2023-03-02T03:37:30;1.90;86.50
1129;DHT22;553;51.038;7.216;2023-03-02T03:39:56;1.90;87.00
1129;DHT22;553;51.038;7.216;2023-03-02T03:42:24;1.80;87.00
1129;DHT22;553;51.038;7.216;2023-03-02T03:44:53;1.70;87.10
1129;DHT22;553;51.038;7.216;2023-03-02T03:47:20;1.70;87.20
1129;DHT22;553;51.038;7.216;2023-03-02T03:49:48;1.60;87.50
1129;DHT22;553;51.038;7.216;2023-03-02T03:52:15;1.60;87.80
1129;DHT22;553;51.038;7.216;2023-03-02T03:54:42;1.60;87.80
1129;DHT22;553;51.038;7.216;2023-03-02T03:57:09;1.60;87.30
1129;DHT22;553;51.038;7.216;2023-03-02T03:59:38;1.60;86.60
1129;DHT22;553;51.038;7.216;2023-03-02T04:02:05;1.60;86.40
1129;DHT22;553;51.038;7.216;2023-03-02T04:04:40;1.70;86.60
1129;DHT22;553;51.038;7.216;2023-03-02T04:07:13;1.70;86.20
1129;DHT22;553;51.038;7.216;2023-03-02T04:09:41;1.80;85.70
1129;DHT22;553;51.038;7.216;2023-03-02T04:12:11;1.80;85.60
1129;DHT22;553;51.038;7.216;2023-03-02T04:14:42;1.70;85.40
1129;DHT22;553;51.038;7.216;2023-03-02T04:17:10;1.80;85.40
1129;DHT22;553;51.038;7.216;2023-03-02T04:19:40;1.80;85.20
1129;DHT22;553;51.038;7.216;2023-03-02T04:22:08;1.90;84.90
1129;DHT22;553;51.038;7.216;2023-03-02T04:24:34;1.90;85.00
1129;DHT22;553;51.038;7.216;2023-03-02T04:27:03;1.90;85.20
1129;DHT22;553;51.038;7.216;2023-03-02T04:29:31;1.90;85.40
1129;DHT22;553;51.038;7.216;2023-03-02T04:31:59;1.90;85.20
1129;DHT22;553;51.038;7.216;2023-03-02T04:34:27;1.90;85.00
1129;DHT22;553;51.038;7.216;2023-03-02T04:36:54;1.90;85.50
1129;DHT22;553;51.038;7.216;2023-03-02T04:39:22;2.00;85.50
1129;DHT22;553;51.038;7.216;2023-03-02T04:41:51;1.90;85.40
1129;DHT22;553;51.038;7.216;2023-03-02T04:44:18;1.90;85.30
1129;DHT22;553;51.038;7.216;2023-03-02T04:46:46;1.90;85.20
1129;DHT22;553;51.038;7.216;2023-03-02T04:49:14;1.80;85.30
1129;DHT22;553;51.038;7.216;2023-03-02T04:51:43;1.80;85.60
1129;DHT22;553;51.038;7.216;2023-03-02T04:54:21;1.70;86.00
1129;DHT22;553;51.038;7.216;2023-03-02T04:56:49;1.60;86.20
1129;DHT22;553;51.038;7.216;2023-03-02T04:59:19;1.50;86.30
1129;DHT22;553;51.038;7.216;2023-03-02T05:01:46;1.50;86.60
1129;DHT22;553;51.038;7.216;2023-03-02T05:04:14;1.40;86.70
1129;DHT22;553;51.038;7.216;2023-03-02T05:06:40;1.30;87.00
1129;DHT22;553;51.038;7.216;2023-03-02T05:09:07;1.30;87.20
1129;DHT22;553;51.038;7.216;2023-03-02T05:11:34;1.30;87.40
1129;DHT22;553;51.038;7.216;2023-03-02T05:14:03;1.20;87.50
1129;DHT22;553;51.038;7.216;2023-03-02T05:16:32;1.20;87.70
1129;DHT22;553;51.038;7.216;2023-03-02T05:19:01;1.20;87.90
1129;DHT22;553;51.038;7.216;2023-03-02T05:21:28;1.20;87.90
1129;DHT22;553;51.038;7.216;2023-03-02T05:23:57;1.20;88.00
1129;DHT22;553;51.038;7.216;2023-03-02T05:26:24;1.10;88.00
1129;DHT22;553;51.038;7.216;2023-03-02T05:28:51;1.20;88.20
1129;DHT22;553;51.038;7.216;2023-03-02T05:31:39;1.10;88.40
1129;DHT22;553;51.038;7.216;2023-03-02T05:34:10;1.20;88.40
1129;DHT22;553;51.038;7.216;2023-03-02T05:36:37;1.20;88.40
1129;DHT22;553;51.038;7.216;2023-03-02T05:39:05;1.20;88.50
1129;DHT22;553;51.038;7.216;2023-03-02T05:41:32;1.10;88.70
1129;DHT22;553;51.038;7.216;2023-03-02T05:44:00;1.10;88.90
1129;DHT22;553;51.038;7.216;2023-03-02T05:46:27;1.10;89.00
1129;DHT22;553;51.038;7.216;2023-03-02T05:48:53;1.00;89.20
1129;DHT22;553;51.038;7.216;2023-03-02T05:51:20;1.10;89.20
1129;DHT22;553;51.038;7.216;2023-03-02T05:53:47;1.00;89.20
1129;DHT22;553;51.038;7.216;2023-03-02T05:56:14;1.10;89.20
1129;DHT22;553;51.038;7.216;2023-03-02T05:58:40;1.20;89.10
1129;DHT22;553;51.038;7.216;2023-03-02T06:01:09;1.20;88.90
1129;DHT22;553;51.038;7.216;2023-03-02T06:03:41;1.20;88.80
1129;DHT22;553;51.038;7.216;2023-03-02T06:06:08;1.20;88.60
1129;DHT22;553;51.038;7.216;2023-03-02T06:08:39;1.20;88.40
1129;DHT22;553;51.038;7.216;2023-03-02T06:11:06;1.30;88.30
1129;DHT22;553;51.038;7.216;2023-03-02T06:13:33;1.20;88.10
1129;DHT22;553;51.038;7.216;2023-03-02T06:16:00;1.30;88.00
1129;DHT22;553;51.038;7.216;2023-03-02T06:18:27;1.30;88.30
1129;DHT22;553;51.038;7.216;2023-03-02T06:20:54;1.30;88.00
1129;DHT22;553;51.038;7.216;2023-03-02T06:23:21;1.40;88.10
1129;DHT22;553;51.038;7.216;2023-03-02T06:25:47;1.40;87.90
1129;DHT22;553;51.038;7.216;2023-03-02T06:28:15;1.40;87.90
1129;DHT22;553;51.038;7.216;2023-03-02T06:30:44;1.40;88.20
1129;DHT22;553;51.038;7.216;2023-03-02T06:33:11;1.40;88.10
1129;DHT22;553;51.038;7.216;2023-03-02T06:35:38;1.30;88.30
1129;DHT22;553;51.038;7.216;2023-03-02T06:38:05;1.30;88.50
1129;DHT22;553;51.038;7.216;2023-03-02T06:40:32;1.20;88.60
1129;DHT22;553;51.038;7.216;2023-03-02T06:42:58;1.20;88.70
1129;DHT22;553;51.038;7.216;2023-03-02T06:45:29;1.20;89.10
1129;DHT22;553;51.038;7.216;2023-03-02T06:48:00;1.20;89.20
1129;DHT22;553;51.038;7.216;2023-03-02T06:50:27;1.20;89.20
1129;DHT22;553;51.038;7.216;2023-03-02T06:52:54;1.20;89.20
1129;DHT22;553;51.038;7.216;2023-03-02T06:55:21;1.30;88.90
1129;DHT22;553;51.038;7.216;2023-03-02T06:57:48;1.30;89.10
1129;DHT22;553;51.038;7.216;2023-03-02T07:00:16;1.40;88.80
1129;DHT22;553;51.038;7.216;2023-03-02T07:02:43;1.40;88.60
1129;DHT22;553;51.038;7.216;2023-03-02T07:05:11;1.60;88.70
1129;DHT22;553;51.038;7.216;2023-03-02T07:07:38;1.60;88.30
1129;DHT22;553;51.038;7.216;2023-03-02T07:10:06;1.70;88.20
1129;DHT22;553;51.038;7.216;2023-03-02T07:12:33;1.80;88.10
1129;DHT22;553;51.038;7.216;2023-03-02T07:15:00;1.70;87.60
1129;DHT22;553;51.038;7.216;2023-03-02T07:17:27;1.70;87.60
1129;DHT22;553;51.038;7.216;2023-03-02T07:19:53;1.80;87.70
1129;DHT22;553;51.038;7.216;2023-03-02T07:22:20;1.80;87.30
1129;DHT22;553;51.038;7.216;2023-03-02T07:24:47;1.90;87.40
1129;DHT22;553;51.038;7.216;2023-03-02T07:27:14;1.90;87.30
1129;DHT22;553;51.038;7.216;2023-03-02T07:29:40;2.00;87.60
1129;DHT22;553;51.038;7.216;2023-03-02T07:32:07;2.00;87.00
1129;DHT22;553;51.038;7.216;2023-03-02T07:34:37;2.10;86.80
1129;DHT22;553;51.038;7.216;2023-03-02T07:37:04;2.10;86.70
1129;DHT22;553;51.038;7.216;2023-03-02T07:39:32;2.10;86.60
1129;DHT22;553;51.038;7.216;2023-03-02T07:41:59;2.20;86.60
1129;DHT22;553;51.038;7.216;2023-03-02T07:44:27;2.30;86.10
1129;DHT22;553;51.038;7.216;2023-03-02T07:46:55;2.30;85.80
1129;DHT22;553;51.038;7.216;2023-03-02T07:49:21;2.40;85.70
1129;DHT22;553;51.038;7.216;2023-03-02T07:51:48;2.40;85.30
1129;DHT22;553;51.038;7.216;2023-03-02T07:54:15;2.50;85.40
1129;DHT22;553;51.038;7.216;2023-03-02T07:56:41;2.50;85.10
1129;DHT22;553;51.038;7.216;2023-03-02T07:59:10;2.60;85.00
1129;DHT22;553;51.038;7.216;2023-03-02T08:01:36;2.70;85.10
1129;DHT22;553;51.038;7.216;2023-03-02T08:04:03;2.80;85.10
1129;DHT22;553;51.038;7.216;2023-03-02T08:06:30;2.90;85.10
1129;DHT22;553;51.038;7.216;2023-03-02T08:08:57;2.90;84.70
1129;DHT22;553;51.038;7.216;2023-03-02T08:11:25;3.00;84.80
1129;DHT22;553;51.038;7.216;2023-03-02T08:13:52;3.10;84.80
1129;DHT22;553;51.038;7.216;2023-03-02T08:16:19;3.10;84.70
1129;DHT22;553;51.038;7.216;2023-03-02T08:18:47;3.20;84.50
1129;DHT22;553;51.038;7.216;2023-03-02T08:21:17;3.30;84.50
1129;DHT22;553;51.038;7.216;2023-03-02T08:23:44;3.40;84.00
1129;DHT22;553;51.038;7.216;2023-03-02T08:26:12;3.50;83.80
1129;DHT22;553;51.038;7.216;2023-03-02T08:28:42;3.60;84.00
1129;DHT22;553;51.038;7.216;2023-03-02T08:31:09;3.80;83.50
1129;DHT22;553;51.038;7.216;2023-03-02T08:33:37;4.10;82.40
1129;DHT22;553;51.038;7.216;2023-03-02T08:36:13;4.50;81.50
1129;DHT22;553;51.038;7.216;2023-03-02T08:38:40;4.90;80.20
1129;DHT22;553;51.038;7.216;2023-03-02T08:41:10;5.40;79.30
1129;DHT22;553;51.038;7.216;2023-03-02T08:43:37;5.70;77.90
1129;DHT22;553;51.038;7.216;2023-03-02T08:46:05;6.00;77.70
1129;DHT22;553;51.038;7.216;2023-03-02T08:48:31;6.50;76.50
1129;DHT22;553;51.038;7.216;2023-03-02T08:51:02;6.90;75.10
1129;DHT22;553;51.038;7.216;2023-03-02T08:53:31;7.20;74.90
1129;DHT22;553;51.038;7.216;2023-03-02T08:55:59;7.60;73.90
1129;DHT22;553;51.038;7.216;2023-03-02T08:58:26;7.80;73.20
1129;DHT22;553;51.038;7.216;2023-03-02T09:00:53;7.90;72.70
1129;DHT22;553;51.038;7.216;2023-03-02T09:03:20;8.30;72.60
1129;DHT22;553;51.038;7.216;2023-03-02T09:05:46;8.50;72.30
1129;DHT22;553;51.038;7.216;2023-03-02T09:08:13;8.80;70.10
1129;DHT22;553;51.038;7.216;2023-03-02T09:10:40;9.10;69.80
1129;DHT22;553;51.038;7.216;2023-03-02T09:13:06;9.00;68.80
1129;DHT22;553;51.038;7.216;2023-03-02T09:15:34;9.00;69.30
1129;DHT22;553;51.038;7.216;2023-03-02T09:18:01;9.00;69.50
1129;DHT22;553;51.038;7.216;2023-03-02T09:20:28;9.10;69.60
1129;DHT22;553;51.038;7.216;2023-03-02T09:22:54;9.40;68.90
1129;DHT22;553;51.038;7.216;2023-03-02T09:25:21;9.40;68.30
1129;DHT22;553;51.038;7.216;2023-03-02T09:27:48;9.80;68.10
1129;DHT22;553;51.038;7.216;2023-03-02T09:30:15;9.80;67.90
1129;DHT22;553;51.038;7.216;2023-03-02T09:32:41;9.90;67.00
1129;DHT22;553;51.038;7.216;2023-03-02T09:35:08;9.80;67.10
1129;DHT22;553;51.038;7.216;2023-03-02T09:37:35;9.70;67.40
1129;DHT22;553;51.038;7.216;2023-03-02T09:40:12;9.80;67.70
1129;DHT22;553;51.038;7.216;2023-03-02T09:45:24;10.50;67.30
1129;DHT22;553;51.038;7.216;2023-03-02T09:48:10;10.70;66.40
1129;DHT22;553;51.038;7.216;2023-03-02T09:51:00;10.70;66.50
1129;DHT22;553;51.038;7.216;2023-03-02T09:53:50;10.80;65.90
1129;DHT22;553;51.038;7.216;2023-03-02T09:56:19;11.00;65.90
1129;DHT22;553;51.038;7.216;2023-03-02T09:59:01;11.10;65.70
1129;DHT22;553;51.038;7.216;2023-03-02T10:01:40;11.30;65.30
1129;DHT22;553;51.038;7.216;2023-03-02T10:04:16;11.50;66.30
1129;DHT22;553;51.038;7.216;2023-03-02T10:06:45;11.90;64.40
1129;DHT22;553;51.038;7.216;2023-03-02T10:09:12;12.10;64.60
1129;DHT22;553;51.038;7.216;2023-03-02T10:11:49;12.00;63.40
1129;DHT22;553;51.038;7.216;2023-03-02T10:14:29;12.00;63.70
1129;DHT22;553;51.038;7.216;2023-03-02T10:17:27;12.10;63.80
1129;DHT22;553;51.038;7.216;2023-03-02T10:20:04;12.20;63.50
1129;DHT22;553;51.038;7.216;2023-03-02T10:22:38;12.30;62.60
1129;DHT22;553;51.038;7.216;2023-03-02T10:25:36;12.40;62.60
1129;DHT22;553;51.038;7.216;2023-03-02T10:28:19;12.40;61.50
1129;DHT22;553;51.038;7.216;2023-03-02T10:31:15;12.30;61.30
1129;DHT22;553;51.038;7.216;2023-03-02T10:33:39;12.30;61.30
1129;DHT22;553;51.038;7.216;2023-03-02T10:36:37;12.50;61.00
1129;DHT22;553;51.038;7.216;2023-03-02T10:39:15;12.50;60.50
1129;DHT22;553;51.038;7.216;2023-03-02T10:41:46;12.60;60.90
1129;DHT22;553;51.038;7.216;2023-03-02T10:44:24;12.60;60.00
1129;DHT22;553;51.038;7.216;2023-03-02T10:46:52;12.70;64.30
1129;DHT22;553;51.038;7.216;2023-03-02T10:49:31;13.00;60.40
1129;DHT22;553;51.038;7.216;2023-03-02T10:52:01;12.80;58.90
1129;DHT22;553;51.038;7.216;2023-03-02T10:54:32;12.80;58.60
1129;DHT22;553;51.038;7.216;2023-03-02T10:57:02;12.80;60.00
1129;DHT22;553;51.038;7.216;2023-03-02T10:59:42;13.00;59.10
1129;DHT22;553;51.038;7.216;2023-03-02T11:02:11;13.20;58.40
1129;DHT22;553;51.038;7.216;2023-03-02T11:04:38;13.20;58.40
1129;DHT22;553;51.038;7.216;2023-03-02T11:07:16;13.10;58.10
1129;DHT22;553;51.038;7.216;2023-03-02T11:12:22;13.30;58.30
1129;DHT22;553;51.038;7.216;2023-03-02T11:14:59;13.50;58.40
1129;DHT22;553;51.038;7.216;2023-03-02T11:17:32;13.50;57.20
1129;DHT22;553;51.038;7.216;2023-03-02T11:20:01;13.40;56.80
1129;DHT22;553;51.038;7.216;2023-03-02T11:22:33;13.50;58.90
1129;DHT22;553;51.038;7.216;2023-03-02T11:25:07;13.60;57.80
1129;DHT22;553;51.038;7.216;2023-03-02T11:27:39;13.70;57.40
1129;DHT22;553;51.038;7.216;2023-03-02T11:30:12;13.70;56.30
1129;DHT22;553;51.038;7.216;2023-03-02T11:32:54;13.60;56.30
1129;DHT22;553;51.038;7.216;2023-03-02T11:35:35;13.40;56.10
1129;DHT22;553;51.038;7.216;2023-03-02T11:38:17;13.40;57.00
1129;DHT22;553;51.038;7.216;2023-03-02T11:40:52;13.40;55.90
1129;DHT22;553;51.038;7.216;2023-03-02T11:43:20;13.50;55.70
1129;DHT22;553;51.038;7.216;2023-03-02T11:45:54;13.50;56.00
1129;DHT22;553;51.038;7.216;2023-03-02T11:53:40;13.40;55.90
1129;DHT22;553;51.038;7.216;2023-03-02T11:56:08;13.20;55.80
1129;DHT22;553;51.038;7.216;2023-03-02T11:58:36;13.30;56.10
1129;DHT22;553;51.038;7.216;2023-03-02T12:01:06;13.20;55.90
1129;DHT22;553;51.038;7.216;2023-03-02T12:03:39;13.20;56.00
1129;DHT22;553;51.038;7.216;2023-03-02T12:06:34;13.40;56.90
1129;DHT22;553;51.038;7.216;2023-03-02T12:11:39;13.20;57.40
1129;DHT22;553;51.038;7.216;2023-03-02T12:14:34;12.90;57.10
1129;DHT22;553;51.038;7.216;2023-03-02T12:22:34;12.80;58.20
1129;DHT22;553;51.038;7.216;2023-03-02T12:27:46;12.70;58.20
1129;DHT22;553;51.038;7.216;2023-03-02T12:33:12;12.60;59.10
1129;DHT22;553;51.038;7.216;2023-03-02T12:35:40;12.70;57.90
1129;DHT22;553;51.038;7.216;2023-03-02T12:38:26;12.60;57.70
1129;DHT22;553;51.038;7.216;2023-03-02T12:41:32;12.60;58.20
1129;DHT22;553;51.038;7.216;2023-03-02T12:46:46;12.80;59.00
1129;DHT22;553;51.038;7.216;2023-03-02T12:51:50;12.90;57.30
1129;DHT22;553;51.038;7.216;2023-03-02T12:54:20;12.80;57.10
1129;DHT22;553;51.038;7.216;2023-03-02T12:56:47;12.70;57.20
1129;DHT22;553;51.038;7.216;2023-03-02T12:59:26;12.80;57.50
1129;DHT22;553;51.038;7.216;2023-03-02T13:02:12;12.80;58.30
1129;DHT22;553;51.038;7.216;2023-03-02T13:04:39;12.50;58.30
1129;DHT22;553;51.038;7.216;2023-03-02T13:07:18;12.60;59.60
1129;DHT22;553;51.038;7.216;2023-03-02T13:09:51;12.60;58.70
1129;DHT22;553;51.038;7.216;2023-03-02T13:12:27;12.40;58.20
1129;DHT22;553;51.038;7.216;2023-03-02T13:14:57;12.50;58.90
1129;DHT22;553;51.038;7.216;2023-03-02T13:17:30;12.40;60.50
1129;DHT22;553;51.038;7.216;2023-03-02T13:19:58;12.50;60.20
1129;DHT22;553;51.038;7.216;2023-03-02T13:22:26;12.50;60.30
1129;DHT22;553;51.038;7.216;2023-03-02T13:24:57;12.50;61.50
1129;DHT22;553;51.038;7.216;2023-03-02T13:27:26;12.50;61.00
1129;DHT22;553;51.038;7.216;2023-03-02T13:29:54;12.50;61.80
1129;DHT22;553;51.038;7.216;2023-03-02T13:32:38;12.40;62.20
1129;DHT22;553;51.038;7.216;2023-03-02T13:35:16;12.50;62.00
1129;DHT22;553;51.038;7.216;2023-03-02T13:37:44;12.40;61.50
1129;DHT22;553;51.038;7.216;2023-03-02T13:42:47;12.20;62.50
1129;DHT22;553;51.038;7.216;2023-03-02T13:47:48;12.10;62.80
1129;DHT22;553;51.038;7.216;2023-03-02T13:52:49;11.90;60.50
1129;DHT22;553;51.038;7.216;2023-03-02T13:55:19;11.90;61.90
1129;DHT22;553;51.038;7.216;2023-03-02T13:57:48;12.00;62.40
1129;DHT22;553;51.038;7.216;2023-03-02T14:00:19;11.90;61.40
1129;DHT22;553;51.038;7.216;2023-03-02T14:02:47;12.00;61.40
1129;DHT22;553;51.038;7.216;2023-03-02T14:05:21;11.90;60.90
1129;DHT22;553;51.038;7.216;2023-03-02T14:07:49;11.90;62.00
1129;DHT22;553;51.038;7.216;2023-03-02T14:10:17;11.90;62.70
1129;DHT22;553;51.038;7.216;2023-03-02T14:13:06;11.80;61.80
1129;DHT22;553;51.038;7.216;2023-03-02T14:15:39;11.80;62.30
1129;DHT22;553;51.038;7.216;2023-03-02T14:20:52;11.90;62.30
1129;DHT22;553;51.038;7.216;2023-03-02T14:23:19;11.90;61.90
1129;DHT22;553;51.038;7.216;2023-03-02T14:25:46;11.90;62.60
1129;DHT22;553;51.038;7.216;2023-03-02T14:28:20;11.90;63.40
1129;DHT22;553;51.038;7.216;2023-03-02T14:30:51;11.80;61.80
1129;DHT22;553;51.038;7.216;2023-03-02T14:33:19;11.70;62.50
1129;DHT22;553;51.038;7.216;2023-03-02T14:35:47;11.80;62.80
1129;DHT22;553;51.038;7.216;2023-03-02T14:38:14;11.80;62.30
1129;DHT22;553;51.038;7.216;2023-03-02T14:40:41;11.90;62.10
1129;DHT22;553;51.038;7.216;2023-03-02T14:43:09;12.00;62.00
1129;DHT22;553;51.038;7.216;2023-03-02T14:45:35;11.90;62.10
1129;DHT22;553;51.038;7.216;2023-03-02T14:48:02;11.90;62.60
1129;DHT22;553;51.038;7.216;2023-03-02T14:50:30;11.90;62.00
1129;DHT22;553;51.038;7.216;2023-03-02T14:52:58;11.70;61.40
1129;DHT22;553;51.038;7.216;2023-03-02T14:55:27;11.80;62.50
1129;DHT22;553;51.038;7.216;2023-03-02T15:00:25;11.70;61.40
1129;DHT22;553;51.038;7.216;2023-03-02T15:02:52;11.70;61.20
1129;DHT22;553;51.038;7.216;2023-03-02T15:05:19;11.60;61.20
1129;DHT22;553;51.038;7.216;2023-03-02T15:07:47;11.50;61.20
1129;DHT22;553;51.038;7.216;2023-03-02T15:10:16;11.40;61.30
1129;DHT22;553;51.038;7.216;2023-03-02T15:12:44;11.40;61.70
1129;DHT22;553;51.038;7.216;2023-03-02T15:15:11;11.30;61.70
1129;DHT22;553;51.038;7.216;2023-03-02T15:17:39;11.30;61.70
1129;DHT22;553;51.038;7.216;2023-03-02T15:20:07;11.90;68.50
1129;DHT22;553;51.038;7.216;2023-03-02T15:22:34;11.90;60.90
1129;DHT22;553;51.038;7.216;2023-03-02T15:25:00;11.60;61.60
1129;DHT22;553;51.038;7.216;2023-03-02T15:27:27;11.40;62.20
1129;DHT22;553;51.038;7.216;2023-03-02T15:29:53;11.30;62.50
1129;DHT22;553;51.038;7.216;2023-03-02T15:32:22;11.20;62.80
1129;DHT22;553;51.038;7.216;2023-03-02T15:34:49;11.10;62.60
1129;DHT22;553;51.038;7.216;2023-03-02T15:37:16;11.20;62.70
1129;DHT22;553;51.038;7.216;2023-03-02T15:39:44;11.20;63.30
1129;DHT22;553;51.038;7.216;2023-03-02T15:42:10;11.10;63.10
1129;DHT22;553;51.038;7.216;2023-03-02T15:44:39;11.10;63.00
1129;DHT22;553;51.038;7.216;2023-03-02T15:47:06;11.10;64.00
1129;DHT22;553;51.038;7.216;2023-03-02T15:49:33;11.10;64.00
1129;DHT22;553;51.038;7.216;2023-03-02T15:52:00;11.10;64.40
1129;DHT22;553;51.038;7.216;2023-03-02T15:54:27;11.00;63.90
1129;DHT22;553;51.038;7.216;2023-03-02T15:56:54;10.90;64.40
1129;DHT22;553;51.038;7.216;2023-03-02T15:59:29;10.80;63.90
1129;DHT22;553;51.038;7.216;2023-03-02T16:01:56;10.80;64.70
1129;DHT22;553;51.038;7.216;2023-03-02T16:04:29;10.80;64.70
1129;DHT22;553;51.038;7.216;2023-03-02T16:06:56;10.70;65.00
1129;DHT22;553;51.038;7.216;2023-03-02T16:09:24;10.60;65.00
1129;DHT22;553;51.038;7.216;2023-03-02T16:11:51;10.50;65.40
1129;DHT22;553;51.038;7.216;2023-03-02T16:14:18;10.40;65.50
1129;DHT22;553;51.038;7.216;2023-03-02T16:16:45;10.30;65.50
1129;DHT22;553;51.038;7.216;2023-03-02T16:19:14;10.20;66.20
1129;DHT22;553;51.038;7.216;2023-03-02T16:21:44;10.20;66.30
1129;DHT22;553;51.038;7.216;2023-03-02T16:24:11;10.20;66.40
1129;DHT22;553;51.038;7.216;2023-03-02T16:26:38;10.20;66.60
1129;DHT22;553;51.038;7.216;2023-03-02T16:29:05;10.20;66.90
1129;DHT22;553;51.038;7.216;2023-03-02T16:31:35;10.20;67.00
1129;DHT22;553;51.038;7.216;2023-03-02T16:34:05;10.10;67.20
1129;DHT22;553;51.038;7.216;2023-03-02T16:36:35;10.10;67.30
1129;DHT22;553;51.038;7.216;2023-03-02T16:39:02;10.00;67.80
1129;DHT22;553;51.038;7.216;2023-03-02T16:41:29;9.90;68.10
1129;DHT22;553;51.038;7.216;2023-03-02T16:43:57;9.80;68.50
1129;DHT22;553;51.038;7.216;2023-03-02T16:46:26;9.80;68.80
1129;DHT22;553;51.038;7.216;2023-03-02T16:48:53;9.70;68.60
1129;DHT22;553;51.038;7.216;2023-03-02T16:51:20;9.60;69.10
1129;DHT22;553;51.038;7.216;2023-03-02T16:53:47;9.50;69.60
1129;DHT22;553;51.038;7.216;2023-03-02T16:56:15;9.40;69.90
1129;DHT22;553;51.038;7.216;2023-03-02T16:58:42;9.40;70.60
1129;DHT22;553;51.038;7.216;2023-03-02T17:01:12;9.30;70.80
1129;DHT22;553;51.038;7.216;2023-03-02T17:03:40;9.20;70.50
1129;DHT22;553;51.038;7.216;2023-03-02T17:06:09;9.20;70.80
1129;DHT22;553;51.038;7.216;2023-03-02T17:08:36;9.10;71.10
1129;DHT22;553;51.038;7.216;2023-03-02T17:11:03;9.10;71.30
1129;DHT22;553;51.038;7.216;2023-03-02T17:13:30;9.00;71.50
1129;DHT22;553;51.038;7.216;2023-03-02T17:15:57;9.00;71.80
1129;DHT22;553;51.038;7.216;2023-03-02T17:18:25;8.80;72.20
1129;DHT22;553;51.038;7.216;2023-03-02T17:20:54;8.70;72.50
1129;DHT22;553;51.038;7.216;2023-03-02T17:23:22;8.60;72.90
1129;DHT22;553;51.038;7.216;2023-03-02T17:25:48;8.50;73.10
1129;DHT22;553;51.038;7.216;2023-03-02T17:28:15;8.50;73.60
1129;DHT22;553;51.038;7.216;2023-03-02T17:30:43;8.30;74.00
1129;DHT22;553;51.038;7.216;2023-03-02T17:33:10;8.30;74.30